createdAt,value
2018-02-15T00:00:04.972Z,1004.03
2018-02-15T00:01:04.986Z,1004.03
2018-02-15T00:02:04.996Z,1003.99
2018-02-15T00:03:05.013Z,1004.00
2018-02-15T00:04:05.040Z,1004.06
2018-02-15T00:05:05.079Z,1004.05
2018-02-15T00:06:05.059Z,1003.99
2018-02-15T00:07:05.072Z,1004.02
2018-02-15T00:08:05.082Z,1003.98
2018-02-15T00:09:05.093Z,1003.96
2018-02-15T00:10:05.107Z,1003.94
2018-02-15T00:11:05.119Z,1003.91
2018-02-15T00:12:05.135Z,1003.92
2018-02-15T00:13:05.148Z,1003.84
2018-02-15T00:14:05.176Z,1003.91
2018-02-15T00:15:05.176Z,1003.91
2018-02-15T00:16:05.193Z,1003.98
2018-02-15T00:17:05.204Z,1003.93
2018-02-15T00:18:05.215Z,1003.91
2018-02-15T00:19:05.229Z,1003.87
2018-02-15T00:20:05.241Z,1003.85
2018-02-15T00:21:05.254Z,1003.83
2018-02-15T00:22:05.268Z,1003.72
2018-02-15T00:23:05.284Z,1003.70
2018-02-15T00:24:05.298Z,1003.63
2018-02-15T00:25:05.324Z,1003.69
2018-02-15T00:26:05.338Z,1003.70
2018-02-15T00:27:05.337Z,1003.65
2018-02-15T00:28:05.352Z,1003.68
2018-02-15T00:29:05.366Z,1003.67
2018-02-15T00:30:05.380Z,1003.68
2018-02-15T00:31:05.397Z,1003.74
2018-02-15T00:32:05.406Z,1003.68
2018-02-15T00:33:05.422Z,1003.76
2018-02-15T00:34:05.433Z,1003.75
2018-02-15T00:35:05.447Z,1003.84
2018-02-15T00:36:05.460Z,1003.80
2018-02-15T00:37:05.473Z,1003.81
2018-02-15T00:38:05.489Z,1003.78
2018-02-15T00:39:05.508Z,1003.79
2018-02-15T00:40:05.518Z,1003.82
2018-02-15T00:41:05.526Z,1003.85
2018-02-15T00:42:05.542Z,1003.93
2018-02-15T00:43:05.550Z,1003.92
2018-02-15T00:44:05.570Z,1003.93
2018-02-15T00:45:05.585Z,1003.97
2018-02-15T00:46:05.598Z,1004.02
2018-02-15T00:47:05.610Z,1004.00
2018-02-15T00:48:05.625Z,1004.00
2018-02-15T00:49:05.675Z,1004.03
2018-02-15T00:50:05.650Z,1004.03
2018-02-15T00:51:05.665Z,1004.02
2018-02-15T00:52:05.674Z,1004.03
2018-02-15T00:53:05.695Z,1004.02
2018-02-15T00:54:05.704Z,1004.05
2018-02-15T00:55:05.723Z,1004.02
2018-02-15T00:56:05.731Z,1003.99
2018-02-15T00:57:05.746Z,1003.96
2018-02-15T00:58:05.759Z,1004.03
2018-02-15T00:59:05.767Z,1004.00
2018-02-15T01:00:05.782Z,1004.04
2018-02-15T01:01:05.803Z,1004.09
2018-02-15T01:02:05.813Z,1004.10
2018-02-15T01:03:05.842Z,1004.14
2018-02-15T01:04:05.841Z,1004.13
2018-02-15T01:05:05.859Z,1004.15
2018-02-15T01:06:05.868Z,1004.16
2018-02-15T01:07:05.877Z,1004.24
2018-02-15T01:08:05.896Z,1004.22
2018-02-15T01:09:05.910Z,1004.22
2018-02-15T01:10:05.933Z,1004.19
2018-02-15T01:11:05.936Z,1004.21
2018-02-15T01:12:05.961Z,1004.20
2018-02-15T01:13:05.963Z,1004.18
2018-02-15T01:14:05.976Z,1004.18
2018-02-15T01:15:05.990Z,1004.10
2018-02-15T01:16:06.005Z,1004.09
2018-02-15T01:17:06.021Z,1004.11
2018-02-15T01:18:06.031Z,1004.04
2018-02-15T01:19:06.047Z,1004.03
2018-02-15T01:20:06.061Z,1003.96
2018-02-15T01:21:06.074Z,1003.95
2018-02-15T01:22:06.088Z,1003.99
2018-02-15T01:23:06.100Z,1003.95
2018-02-15T01:24:06.113Z,1003.95
2018-02-15T01:25:06.128Z,1003.95
2018-02-15T01:26:06.145Z,1003.94
2018-02-15T01:27:06.158Z,1003.99
2018-02-15T01:28:06.169Z,1003.97
2018-02-15T01:29:06.224Z,1003.93
2018-02-15T01:30:06.194Z,1003.95
2018-02-15T01:31:06.211Z,1003.90
2018-02-15T01:32:06.230Z,1003.90
2018-02-15T01:33:06.240Z,1003.88
2018-02-15T01:34:06.251Z,1003.83
2018-02-15T01:35:06.264Z,1003.87
2018-02-15T01:36:06.282Z,1003.89
2018-02-15T01:37:06.300Z,1003.81
2018-02-15T01:38:06.313Z,1003.84
2018-02-15T01:39:06.323Z,1003.84
2018-02-15T01:40:06.334Z,1003.81
2018-02-15T01:41:06.350Z,1003.83
2018-02-15T01:42:06.366Z,1003.79
2018-02-15T01:43:06.376Z,1003.74
2018-02-15T01:44:06.393Z,1003.73
2018-02-15T01:45:06.405Z,1003.70
2018-02-15T01:46:06.417Z,1003.65
2018-02-15T01:47:06.431Z,1003.66
2018-02-15T01:48:06.445Z,1003.63
2018-02-15T01:49:06.489Z,1003.62
2018-02-15T01:50:06.476Z,1003.63
2018-02-15T01:51:06.486Z,1003.60
2018-02-15T01:52:06.503Z,1003.61
2018-02-15T01:53:06.516Z,1003.53
2018-02-15T01:54:06.526Z,1003.52
2018-02-15T01:55:06.543Z,1003.49
2018-02-15T01:56:06.556Z,1003.44
2018-02-15T01:57:06.570Z,1003.48
2018-02-15T01:58:06.580Z,1003.38
2018-02-15T01:59:06.595Z,1003.35
2018-02-15T02:00:06.607Z,1003.30
2018-02-15T02:01:06.624Z,1003.28
2018-02-15T02:02:06.644Z,1003.26
2018-02-15T02:03:06.657Z,1003.20
2018-02-15T02:04:06.688Z,1003.15
2018-02-15T02:05:06.682Z,1003.10
2018-02-15T02:06:06.693Z,1003.04
2018-02-15T02:07:06.708Z,1003.06
2018-02-15T02:08:06.723Z,1003.09
2018-02-15T02:09:06.737Z,1003.04
2018-02-15T02:10:06.749Z,1003.07
2018-02-15T02:11:06.768Z,1002.99
2018-02-15T02:12:06.776Z,1002.99
2018-02-15T02:13:06.792Z,1002.97
2018-02-15T02:14:06.808Z,1002.90
2018-02-15T02:15:06.822Z,1002.89
2018-02-15T02:16:06.838Z,1002.80
2018-02-15T02:17:06.849Z,1002.81
2018-02-15T02:18:06.859Z,1002.83
2018-02-15T02:19:06.878Z,1002.81
2018-02-15T02:20:06.888Z,1002.84
2018-02-15T02:21:06.904Z,1002.85
2018-02-15T02:22:06.919Z,1002.91
2018-02-15T02:23:06.930Z,1002.93
2018-02-15T02:24:06.943Z,1002.98
2018-02-15T02:25:06.960Z,1002.94
2018-02-15T02:26:06.970Z,1002.99
2018-02-15T02:27:06.987Z,1002.97
2018-02-15T02:28:07.001Z,1002.98
2018-02-15T02:29:07.012Z,1002.96
2018-02-15T02:30:07.029Z,1002.98
2018-02-15T02:31:07.042Z,1002.95
2018-02-15T02:32:07.054Z,1003.01
2018-02-15T02:33:07.069Z,1003.02
2018-02-15T02:34:07.085Z,1003.03
2018-02-15T02:35:07.161Z,1003.02
2018-02-15T02:36:07.112Z,1003.02
2018-02-15T02:37:07.130Z,1003.01
2018-02-15T02:38:07.145Z,1003.02
2018-02-15T02:39:07.153Z,1003.03
2018-02-15T02:40:07.166Z,1003.05
2018-02-15T02:41:07.184Z,1003.01
2018-02-15T02:42:07.196Z,1002.99
2018-02-15T02:43:07.208Z,1003.01
2018-02-15T02:44:07.221Z,1003.02
2018-02-15T02:45:07.238Z,1002.99
2018-02-15T02:46:07.250Z,1002.99
2018-02-15T02:47:07.267Z,1002.97
2018-02-15T02:48:07.278Z,1002.95
2018-02-15T02:49:07.293Z,1002.96
2018-02-15T02:50:07.309Z,1002.91
2018-02-15T02:51:07.321Z,1002.92
2018-02-15T02:52:07.334Z,1002.92
2018-02-15T02:53:07.352Z,1002.96
2018-02-15T02:54:07.361Z,1002.98
2018-02-15T02:55:07.379Z,1002.96
2018-02-15T02:56:07.393Z,1002.93
2018-02-15T02:57:07.404Z,1002.93
2018-02-15T02:58:07.418Z,1002.88
2018-02-15T02:59:07.440Z,1002.87
2018-02-15T03:00:07.456Z,1002.90
2018-02-15T03:01:07.467Z,1002.88
2018-02-15T03:02:07.472Z,1002.87
2018-02-15T03:03:07.496Z,1002.89
2018-02-15T03:04:07.513Z,1002.90
2018-02-15T03:05:07.514Z,1002.86
2018-02-15T03:06:07.529Z,1002.90
2018-02-15T03:07:07.544Z,1002.92
2018-02-15T03:08:07.557Z,1002.91
2018-02-15T03:09:07.574Z,1002.94
2018-02-15T03:10:07.586Z,1002.89
2018-02-15T03:11:07.602Z,1002.90
2018-02-15T03:12:07.613Z,1002.90
2018-02-15T03:13:07.633Z,1002.90
2018-02-15T03:14:07.641Z,1002.82
2018-02-15T03:15:07.656Z,1002.84
2018-02-15T03:16:07.670Z,1002.77
2018-02-15T03:17:07.684Z,1002.77
2018-02-15T03:18:07.701Z,1002.77
2018-02-15T03:19:07.717Z,1002.74
2018-02-15T03:20:07.729Z,1002.74
2018-02-15T03:21:07.740Z,1002.74
2018-02-15T03:22:07.754Z,1002.71
2018-02-15T03:23:07.774Z,1002.73
2018-02-15T03:24:07.786Z,1002.72
2018-02-15T03:25:07.800Z,1002.75
2018-02-15T03:26:07.809Z,1002.72
2018-02-15T03:27:07.825Z,1002.78
2018-02-15T03:28:07.837Z,1002.79
2018-02-15T03:29:07.853Z,1002.77
2018-02-15T03:30:07.874Z,1002.74
2018-02-15T03:31:07.882Z,1002.72
2018-02-15T03:32:07.896Z,1002.71
2018-02-15T03:33:07.912Z,1002.72
2018-02-15T03:34:07.981Z,1002.71
2018-02-15T03:35:07.938Z,1002.68
2018-02-15T03:36:07.953Z,1002.71
2018-02-15T03:37:07.964Z,1002.66
2018-02-15T03:38:07.981Z,1002.63
2018-02-15T03:39:07.994Z,1002.65
2018-02-15T03:40:08.009Z,1002.69
2018-02-15T03:41:08.023Z,1002.64
2018-02-15T03:42:08.037Z,1002.63
2018-02-15T03:43:08.048Z,1002.58
2018-02-15T03:44:08.059Z,1002.58
2018-02-15T03:45:08.077Z,1002.57
2018-02-15T03:46:08.091Z,1002.55
2018-02-15T03:47:08.108Z,1002.56
2018-02-15T03:48:08.122Z,1002.54
2018-02-15T03:49:08.134Z,1002.55
2018-02-15T03:50:08.148Z,1002.53
2018-02-15T03:51:08.164Z,1002.58
2018-02-15T03:52:08.177Z,1002.60
2018-02-15T03:53:08.192Z,1002.59
2018-02-15T03:54:08.204Z,1002.56
2018-02-15T03:55:08.225Z,1002.57
2018-02-15T03:56:08.233Z,1002.52
2018-02-15T03:57:08.248Z,1002.48
2018-02-15T03:58:08.257Z,1002.43
2018-02-15T03:59:08.280Z,1002.45
2018-02-15T04:00:08.293Z,1002.42
2018-02-15T04:01:08.305Z,1002.43
2018-02-15T04:02:08.325Z,1002.45
2018-02-15T04:03:08.336Z,1002.44
2018-02-15T04:04:08.350Z,1002.41
2018-02-15T04:05:08.363Z,1002.45
2018-02-15T04:06:08.374Z,1002.46
2018-02-15T04:07:08.389Z,1002.46
2018-02-15T04:08:08.411Z,1002.46
2018-02-15T04:09:08.418Z,1002.46
2018-02-15T04:10:08.436Z,1002.45
2018-02-15T04:11:08.443Z,1002.48
2018-02-15T04:12:08.460Z,1002.46
2018-02-15T04:13:08.478Z,1002.45
2018-02-15T04:14:08.488Z,1002.44
2018-02-15T04:15:08.502Z,1002.49
2018-02-15T04:16:08.530Z,1002.52
2018-02-15T04:17:08.534Z,1002.57
2018-02-15T04:18:08.545Z,1002.58
2018-02-15T04:19:08.559Z,1002.61
2018-02-15T04:20:08.572Z,1002.66
2018-02-15T04:21:08.589Z,1002.68
2018-02-15T04:22:08.602Z,1002.70
2018-02-15T04:23:08.619Z,1002.74
2018-02-15T04:24:08.629Z,1002.73
2018-02-15T04:25:08.643Z,1002.69
2018-02-15T04:26:08.654Z,1002.73
2018-02-15T04:27:08.675Z,1002.74
2018-02-15T04:28:08.684Z,1002.79
2018-02-15T04:29:08.705Z,1002.75
2018-02-15T04:30:08.715Z,1002.80
2018-02-15T04:31:08.730Z,1002.81
2018-02-15T04:32:08.748Z,1002.81
2018-02-15T04:33:08.757Z,1002.86
2018-02-15T04:34:08.769Z,1002.84
2018-02-15T04:35:08.786Z,1002.84
2018-02-15T04:36:08.800Z,1002.89
2018-02-15T04:37:08.816Z,1002.87
2018-02-15T04:38:08.831Z,1002.93
2018-02-15T04:39:08.843Z,1002.92
2018-02-15T04:40:08.854Z,1002.92
2018-02-15T04:41:08.867Z,1002.94
2018-02-15T04:42:08.886Z,1002.95
2018-02-15T04:43:08.899Z,1002.91
2018-02-15T04:44:08.915Z,1002.94
2018-02-15T04:45:08.933Z,1002.94
2018-02-15T04:46:08.943Z,1002.93
2018-02-15T04:47:08.959Z,1002.97
2018-02-15T04:48:08.971Z,1002.98
2018-02-15T04:49:08.987Z,1003.00
2018-02-15T04:50:09.001Z,1003.02
2018-02-15T04:51:09.022Z,1003.03
2018-02-15T04:52:09.034Z,1003.02
2018-02-15T04:53:09.041Z,1003.07
2018-02-15T04:54:09.059Z,1003.07
2018-02-15T04:55:09.075Z,1003.10
2018-02-15T04:56:09.084Z,1003.09
2018-02-15T04:57:09.106Z,1003.08
2018-02-15T04:58:09.129Z,1003.06
2018-02-15T04:59:09.129Z,1003.09
2018-02-15T05:00:09.145Z,1003.09
2018-02-15T05:01:09.162Z,1003.12
2018-02-15T05:02:09.174Z,1003.07
2018-02-15T05:03:09.186Z,1003.06
2018-02-15T05:04:09.201Z,1003.02
2018-02-15T05:05:09.221Z,1003.00
2018-02-15T05:06:09.230Z,1003.00
2018-02-15T05:07:09.247Z,1002.99
2018-02-15T05:08:09.259Z,1003.02
2018-02-15T05:09:09.275Z,1003.09
2018-02-15T05:10:09.291Z,1003.03
2018-02-15T05:11:09.308Z,1002.98
2018-02-15T05:12:09.317Z,1003.00
2018-02-15T05:13:09.330Z,1002.97
2018-02-15T05:14:09.342Z,1002.97
2018-02-15T05:15:09.358Z,1003.00
2018-02-15T05:16:09.381Z,1002.97
2018-02-15T05:17:09.389Z,1003.01
2018-02-15T05:18:09.403Z,1003.00
2018-02-15T05:19:09.418Z,1003.00
2018-02-15T05:20:09.479Z,1003.03
2018-02-15T05:21:09.449Z,1003.03
2018-02-15T05:22:09.455Z,1003.05
2018-02-15T05:23:09.472Z,1003.03
2018-02-15T05:24:09.488Z,1003.05
2018-02-15T05:25:09.506Z,1003.06
2018-02-15T05:26:09.519Z,1003.06
2018-02-15T05:27:09.530Z,1003.04
2018-02-15T05:28:09.543Z,1003.04
2018-02-15T05:29:09.558Z,1003.04
2018-02-15T05:30:09.572Z,1003.09
2018-02-15T05:31:09.586Z,1003.08
2018-02-15T05:32:09.600Z,1003.07
2018-02-15T05:33:09.615Z,1003.10
2018-02-15T05:34:09.632Z,1003.09
2018-02-15T05:35:09.643Z,1003.11
2018-02-15T05:36:09.658Z,1003.10
2018-02-15T05:37:09.671Z,1003.08
2018-02-15T05:38:09.693Z,1003.10
2018-02-15T05:39:09.700Z,1003.08
2018-02-15T05:40:09.715Z,1003.04
2018-02-15T05:41:09.729Z,1003.01
2018-02-15T05:42:09.753Z,1003.04
2018-02-15T05:43:09.756Z,1003.03
2018-02-15T05:44:09.794Z,1003.01
2018-02-15T05:45:09.782Z,1002.98
2018-02-15T05:46:09.800Z,1003.00
2018-02-15T05:47:09.816Z,1002.97
2018-02-15T05:48:09.834Z,1002.96
2018-02-15T05:49:09.840Z,1002.91
2018-02-15T05:50:09.858Z,1002.87
2018-02-15T05:51:09.868Z,1002.87
2018-02-15T05:52:09.876Z,1002.86
2018-02-15T05:53:09.943Z,1002.89
2018-02-15T05:54:09.907Z,1002.87
2018-02-15T05:55:09.940Z,1002.88
2018-02-15T05:56:09.940Z,1002.87
2018-02-15T05:57:09.955Z,1002.90
2018-02-15T05:58:09.965Z,1002.85
2018-02-15T05:59:09.985Z,1002.95
2018-02-15T06:00:09.999Z,1002.93
2018-02-15T06:01:10.011Z,1002.92
2018-02-15T06:02:10.023Z,1002.90
2018-02-15T06:03:10.048Z,1002.93
2018-02-15T06:04:10.053Z,1002.88
2018-02-15T06:05:10.095Z,1002.93
2018-02-15T06:06:10.080Z,1002.91
2018-02-15T06:07:10.098Z,1002.93
2018-02-15T06:08:10.103Z,1002.91
2018-02-15T06:09:10.125Z,1002.94
2018-02-15T06:10:10.136Z,1002.92
2018-02-15T06:11:10.152Z,1002.90
2018-02-15T06:12:10.164Z,1002.94
2018-02-15T06:13:10.180Z,1002.93
2018-02-15T06:14:10.198Z,1002.95
2018-02-15T06:15:10.212Z,1002.96
2018-02-15T06:16:10.220Z,1002.92
2018-02-15T06:17:10.256Z,1002.94
2018-02-15T06:18:10.249Z,1002.98
2018-02-15T06:19:10.265Z,1002.97
2018-02-15T06:20:10.284Z,1002.97
2018-02-15T06:21:10.294Z,1003.03
2018-02-15T06:22:10.305Z,1002.98
2018-02-15T06:23:10.321Z,1002.99
2018-02-15T06:24:10.336Z,1003.01
2018-02-15T06:25:10.352Z,1002.99
2018-02-15T06:26:10.365Z,1003.00
2018-02-15T06:27:10.379Z,1002.98
2018-02-15T06:28:10.406Z,1003.01
2018-02-15T06:29:10.407Z,1003.03
2018-02-15T06:30:10.420Z,1003.00
2018-02-15T06:31:10.434Z,1003.03
2018-02-15T06:32:10.450Z,1003.04
2018-02-15T06:33:10.459Z,1003.06
2018-02-15T06:34:10.472Z,1003.08
2018-02-15T06:35:10.488Z,1003.10
2018-02-15T06:36:10.506Z,1003.11
2018-02-15T06:37:10.521Z,1003.09
2018-02-15T06:38:10.540Z,1003.09
2018-02-15T06:39:10.550Z,1003.09
2018-02-15T06:40:10.562Z,1003.14
2018-02-15T06:41:10.578Z,1003.11
2018-02-15T06:42:10.592Z,1003.15
2018-02-15T06:43:10.604Z,1003.18
2018-02-15T06:44:10.620Z,1003.14
2018-02-15T06:45:10.636Z,1003.15
2018-02-15T06:46:10.648Z,1003.15
2018-02-15T06:47:10.660Z,1003.16
2018-02-15T06:48:10.679Z,1003.16
2018-02-15T06:49:10.689Z,1003.16
2018-02-15T06:50:10.715Z,1003.13
2018-02-15T06:51:10.716Z,1003.16
2018-02-15T06:52:10.733Z,1003.16
2018-02-15T06:53:10.755Z,1003.20
2018-02-15T06:54:10.766Z,1003.16
2018-02-15T06:55:10.790Z,1003.20
2018-02-15T06:56:10.795Z,1003.21
2018-02-15T06:57:10.807Z,1003.21
2018-02-15T06:58:10.819Z,1003.26
2018-02-15T06:59:10.830Z,1003.24
2018-02-15T07:00:10.847Z,1003.23
2018-02-15T07:01:10.859Z,1003.26
2018-02-15T07:02:10.876Z,1003.26
2018-02-15T07:03:10.886Z,1003.25
2018-02-15T07:04:10.902Z,1003.31
2018-02-15T07:05:10.917Z,1003.28
2018-02-15T07:06:10.937Z,1003.27
2018-02-15T07:07:10.937Z,1003.27
2018-02-15T07:08:10.963Z,1003.29
2018-02-15T07:09:10.981Z,1003.31
2018-02-15T07:10:10.988Z,1003.29
2018-02-15T07:11:11.002Z,1003.27
2018-02-15T07:12:11.018Z,1003.23
2018-02-15T07:13:11.034Z,1003.23
2018-02-15T07:14:11.045Z,1003.24
2018-02-15T07:15:11.067Z,1003.27
2018-02-15T07:16:11.072Z,1003.27
2018-02-15T07:17:11.091Z,1003.29
2018-02-15T07:18:11.099Z,1003.26
2018-02-15T07:19:11.116Z,1003.30
2018-02-15T07:20:11.135Z,1003.28
2018-02-15T07:21:11.146Z,1003.25
2018-02-15T07:22:11.170Z,1003.25
2018-02-15T07:23:11.179Z,1003.26
2018-02-15T07:24:11.188Z,1003.29
2018-02-15T07:25:11.200Z,1003.24
2018-02-15T07:26:11.216Z,1003.22
2018-02-15T07:27:11.231Z,1003.27
2018-02-15T07:28:11.245Z,1003.25
2018-02-15T07:29:11.266Z,1003.21
2018-02-15T07:30:11.274Z,1003.21
2018-02-15T07:31:11.285Z,1003.26
2018-02-15T07:32:11.299Z,1003.24
2018-02-15T07:33:11.310Z,1003.19
2018-02-15T07:34:11.334Z,1003.18
2018-02-15T07:35:11.348Z,1003.15
2018-02-15T07:36:11.373Z,1003.15
2018-02-15T07:37:11.379Z,1003.14
2018-02-15T07:38:11.394Z,1003.14
2018-02-15T07:39:11.399Z,1003.12
2018-02-15T07:40:11.410Z,1003.17
2018-02-15T07:41:11.428Z,1003.15
2018-02-15T07:42:11.437Z,1003.16
2018-02-15T07:43:11.466Z,1003.17
2018-02-15T07:44:11.500Z,1003.20
2018-02-15T07:45:11.481Z,1003.21
2018-02-15T07:46:11.494Z,1003.15
2018-02-15T07:47:11.506Z,1003.16
2018-02-15T07:48:11.534Z,1003.20
2018-02-15T07:49:11.543Z,1003.20
2018-02-15T07:50:11.555Z,1003.19
2018-02-15T07:51:11.569Z,1003.19
2018-02-15T07:52:11.584Z,1003.16
2018-02-15T07:53:11.596Z,1003.16
2018-02-15T07:54:11.612Z,1003.17
2018-02-15T07:55:11.624Z,1003.20
2018-02-15T07:56:11.640Z,1003.14
2018-02-15T07:57:11.657Z,1003.14
2018-02-15T07:58:11.677Z,1003.14
2018-02-15T07:59:11.682Z,1003.16
2018-02-15T08:00:11.700Z,1003.13
2018-02-15T08:01:11.706Z,1003.13
2018-02-15T08:02:11.732Z,1003.20
2018-02-15T08:03:11.740Z,1003.13
2018-02-15T08:04:11.759Z,1003.13
2018-02-15T08:05:11.770Z,1003.10
2018-02-15T08:06:11.777Z,1003.04
2018-02-15T08:07:11.797Z,1003.04
2018-02-15T08:08:11.812Z,1003.08
2018-02-15T08:09:11.825Z,1003.07
2018-02-15T08:10:11.839Z,1003.03
2018-02-15T08:11:11.856Z,1003.01
2018-02-15T08:12:11.866Z,1003.01
2018-02-15T08:13:11.880Z,1002.98
2018-02-15T08:14:11.894Z,1003.01
2018-02-15T08:15:11.910Z,1002.90
2018-02-15T08:16:11.927Z,1002.85
2018-02-15T08:17:11.940Z,1002.87
2018-02-15T08:18:11.954Z,1002.87
2018-02-15T08:19:11.964Z,1002.86
2018-02-15T08:20:11.988Z,1002.84
2018-02-15T08:21:11.994Z,1002.87
2018-02-15T08:22:12.013Z,1002.87
2018-02-15T08:23:12.039Z,1002.85
2018-02-15T08:24:12.044Z,1002.87
2018-02-15T08:25:12.049Z,1002.84
2018-02-15T08:26:12.070Z,1002.87
2018-02-15T08:27:12.079Z,1002.88
2018-02-15T08:28:12.098Z,1002.87
2018-02-15T08:29:12.103Z,1002.85
2018-02-15T08:30:12.123Z,1002.87
2018-02-15T08:31:12.136Z,1002.87
2018-02-15T08:32:12.152Z,1002.90
2018-02-15T08:33:12.164Z,1002.91
2018-02-15T08:34:12.178Z,1002.95
2018-02-15T08:35:12.239Z,1002.92
2018-02-15T08:36:12.202Z,1002.92
2018-02-15T08:37:12.218Z,1002.92
2018-02-15T08:38:12.237Z,1002.93
2018-02-15T08:39:12.267Z,1002.88
2018-02-15T08:40:12.266Z,1002.82
2018-02-15T08:41:12.282Z,1002.76
2018-02-15T08:42:12.295Z,1002.73
2018-02-15T08:43:12.306Z,1002.77
2018-02-15T08:44:12.325Z,1002.74
2018-02-15T08:45:12.333Z,1002.72
2018-02-15T08:46:12.348Z,1002.74
2018-02-15T08:47:12.363Z,1002.68
2018-02-15T08:48:12.376Z,1002.71
2018-02-15T08:49:12.396Z,1002.73
2018-02-15T08:50:12.404Z,1002.72
2018-02-15T08:51:12.416Z,1002.72
2018-02-15T08:52:12.482Z,1002.72
2018-02-15T08:53:12.450Z,1002.75
2018-02-15T08:54:12.460Z,1002.77
2018-02-15T08:55:12.470Z,1002.78
2018-02-15T08:56:12.488Z,1002.80
2018-02-15T08:57:12.504Z,1002.80
2018-02-15T08:58:12.515Z,1002.86
2018-02-15T08:59:12.528Z,1002.80
2018-02-15T09:00:12.545Z,1002.81
2018-02-15T09:01:12.561Z,1002.81
2018-02-15T09:02:12.570Z,1002.77
2018-02-15T09:03:12.589Z,1002.78
2018-02-15T09:04:12.606Z,1002.80
2018-02-15T09:05:12.616Z,1002.78
2018-02-15T09:06:12.630Z,1002.84
2018-02-15T09:07:12.654Z,1002.85
2018-02-15T09:08:12.659Z,1002.91
2018-02-15T09:09:12.673Z,1002.94
2018-02-15T09:10:12.685Z,1002.89
2018-02-15T09:11:12.702Z,1002.89
2018-02-15T09:12:12.758Z,1002.86
2018-02-15T09:13:12.732Z,1002.86
2018-02-15T09:14:12.744Z,1002.89
2018-02-15T09:15:12.763Z,1002.93
2018-02-15T09:16:12.772Z,1002.89
2018-02-15T09:17:12.789Z,1002.91
2018-02-15T09:18:12.801Z,1002.91
2018-02-15T09:19:12.815Z,1002.86
2018-02-15T09:20:12.830Z,1002.85
2018-02-15T09:21:12.845Z,1002.83
2018-02-15T09:22:12.861Z,1002.83
2018-02-15T09:23:12.872Z,1002.83
2018-02-15T09:24:12.907Z,1002.81
2018-02-15T09:25:12.901Z,1002.79
2018-02-15T09:26:12.915Z,1002.78
2018-02-15T09:27:12.931Z,1002.74
2018-02-15T09:28:12.950Z,1002.76
2018-02-15T09:29:12.970Z,1002.79
2018-02-15T09:30:12.975Z,1002.78
2018-02-15T09:31:12.991Z,1002.73
2018-02-15T09:32:13.004Z,1002.79
2018-02-15T09:33:13.018Z,1002.81
2018-02-15T09:34:13.031Z,1002.83
2018-02-15T09:35:13.045Z,1002.84
2018-02-15T09:36:13.084Z,1002.79
2018-02-15T09:37:13.078Z,1002.78
2018-02-15T09:38:13.087Z,1002.80
2018-02-15T09:39:13.107Z,1002.76
2018-02-15T09:40:13.129Z,1002.79
2018-02-15T09:41:13.135Z,1002.78
2018-02-15T09:42:13.149Z,1002.79
2018-02-15T09:43:13.167Z,1002.77
2018-02-15T09:44:13.179Z,1002.78
2018-02-15T09:45:13.195Z,1002.82
2018-02-15T09:46:13.207Z,1002.80
2018-02-15T09:47:13.222Z,1002.85
2018-02-15T09:48:13.245Z,1002.87
2018-02-15T09:49:13.269Z,1002.82
2018-02-15T09:50:13.267Z,1002.85
2018-02-15T09:51:13.280Z,1002.87
2018-02-15T09:52:13.296Z,1002.94
2018-02-15T09:53:13.313Z,1002.91
2018-02-15T09:54:13.322Z,1002.87
2018-02-15T09:55:13.341Z,1002.85
2018-02-15T09:56:13.356Z,1002.84
2018-02-15T09:57:13.366Z,1002.86
2018-02-15T09:58:13.385Z,1002.82
2018-02-15T09:59:13.401Z,1002.83
2018-02-15T10:00:13.416Z,1002.88
2018-02-15T10:01:13.437Z,1002.85
2018-02-15T10:02:13.441Z,1002.89
2018-02-15T10:03:13.458Z,1002.85
2018-02-15T10:04:13.471Z,1002.90
2018-02-15T10:05:13.486Z,1002.89
2018-02-15T10:06:13.495Z,1002.90
2018-02-15T10:07:13.523Z,1002.94
2018-02-15T10:08:13.532Z,1002.96
2018-02-15T10:09:13.549Z,1002.97
2018-02-15T10:10:13.613Z,1002.98
2018-02-15T10:11:13.575Z,1003.00
2018-02-15T10:12:13.590Z,1003.03
2018-02-15T10:13:13.605Z,1003.03
2018-02-15T10:14:13.616Z,1003.05
2018-02-15T10:15:13.641Z,1003.03
2018-02-15T10:16:13.653Z,1003.04
2018-02-15T10:17:13.663Z,1003.05
2018-02-15T10:18:13.676Z,1003.03
2018-02-15T10:19:13.695Z,1003.01
2018-02-15T10:20:13.714Z,1003.01
2018-02-15T10:21:13.741Z,1003.00
2018-02-15T10:22:13.740Z,1002.98
2018-02-15T10:23:13.764Z,1003.02
2018-02-15T10:24:13.770Z,1002.96
2018-02-15T10:25:13.816Z,1002.94
2018-02-15T10:26:13.798Z,1002.96
2018-02-15T10:27:13.815Z,1002.96
2018-02-15T10:28:13.833Z,1002.98
2018-02-15T10:29:13.845Z,1002.99
2018-02-15T10:30:13.856Z,1003.00
2018-02-15T10:31:13.869Z,1002.99
2018-02-15T10:32:13.882Z,1002.98
2018-02-15T10:33:13.909Z,1002.94
2018-02-15T10:34:13.923Z,1002.99
2018-02-15T10:35:13.942Z,1003.02
2018-02-15T10:36:13.949Z,1003.04
2018-02-15T10:37:13.961Z,1003.02
2018-02-15T10:38:13.978Z,1003.04
2018-02-15T10:39:13.996Z,1003.04
2018-02-15T10:40:14.009Z,1003.09
2018-02-15T10:41:14.030Z,1003.05
2018-02-15T10:42:14.043Z,1003.07
2018-02-15T10:43:14.051Z,1003.05
2018-02-15T10:44:14.068Z,1003.08
2018-02-15T10:45:14.126Z,1003.03
2018-02-15T10:46:14.097Z,1003.04
2018-02-15T10:47:14.115Z,1003.02
2018-02-15T10:48:14.133Z,1003.05
2018-02-15T10:49:14.144Z,1003.03
2018-02-15T10:50:14.161Z,1003.08
2018-02-15T10:51:14.174Z,1003.05
2018-02-15T10:52:14.189Z,1003.06
2018-02-15T10:53:14.213Z,1003.03
2018-02-15T10:54:14.223Z,1003.04
2018-02-15T10:55:14.233Z,1003.08
2018-02-15T10:56:14.250Z,1003.06
2018-02-15T10:57:14.285Z,1003.11
2018-02-15T10:58:14.279Z,1003.05
2018-02-15T10:59:14.297Z,1003.07
2018-02-15T11:00:14.308Z,1003.07
2018-02-15T11:01:14.328Z,1003.13
2018-02-15T11:02:14.346Z,1003.06
2018-02-15T11:03:14.357Z,1003.06
2018-02-15T11:04:14.376Z,1003.10
2018-02-15T11:05:14.384Z,1003.11
2018-02-15T11:06:14.402Z,1003.10
2018-02-15T11:07:14.564Z,1003.15
2018-02-15T11:08:14.433Z,1003.13
2018-02-15T11:09:14.448Z,1003.19
2018-02-15T11:10:14.457Z,1003.18
2018-02-15T11:11:14.475Z,1003.20
2018-02-15T11:12:14.491Z,1003.24
2018-02-15T11:13:14.511Z,1003.26
2018-02-15T11:14:14.521Z,1003.28
2018-02-15T11:15:14.549Z,1003.25
2018-02-15T11:16:14.558Z,1003.27
2018-02-15T11:17:14.568Z,1003.29
2018-02-15T11:18:14.586Z,1003.28
2018-02-15T11:19:14.597Z,1003.30
2018-02-15T11:20:14.616Z,1003.34
2018-02-15T11:21:14.630Z,1003.31
2018-02-15T11:22:14.646Z,1003.34
2018-02-15T11:23:14.657Z,1003.40
2018-02-15T11:24:14.715Z,1003.32
2018-02-15T11:25:14.689Z,1003.31
2018-02-15T11:26:14.701Z,1003.31
2018-02-15T11:27:14.735Z,1003.35
2018-02-15T11:28:14.735Z,1003.36
2018-02-15T11:29:14.791Z,1003.33
2018-02-15T11:30:14.760Z,1003.33
2018-02-15T11:31:14.780Z,1003.29
2018-02-15T11:32:14.793Z,1003.33
2018-02-15T11:33:14.809Z,1003.26
2018-02-15T11:34:14.821Z,1003.29
2018-02-15T11:35:14.836Z,1003.28
2018-02-15T11:36:14.853Z,1003.29
2018-02-15T11:37:14.867Z,1003.27
2018-02-15T11:38:14.886Z,1003.28
2018-02-15T11:39:14.894Z,1003.26
2018-02-15T11:40:14.914Z,1003.27
2018-02-15T11:41:14.923Z,1003.26
2018-02-15T11:42:14.941Z,1003.24
2018-02-15T11:43:14.952Z,1003.23
2018-02-15T11:44:14.973Z,1003.24
2018-02-15T11:45:14.984Z,1003.28
2018-02-15T11:46:15.001Z,1003.27
2018-02-15T11:47:15.018Z,1003.24
2018-02-15T11:48:15.053Z,1003.28
2018-02-15T11:49:15.040Z,1003.32
2018-02-15T11:50:15.058Z,1003.31
2018-02-15T11:51:15.095Z,1003.34
2018-02-15T11:52:15.087Z,1003.29
2018-02-15T11:53:15.100Z,1003.27
2018-02-15T11:54:15.112Z,1003.29
2018-02-15T11:55:15.128Z,1003.28
2018-02-15T11:56:15.173Z,1003.25
2018-02-15T11:57:15.163Z,1003.24
2018-02-15T11:58:15.178Z,1003.27
2018-02-15T11:59:15.196Z,1003.23
2018-02-15T12:00:15.204Z,1003.26
2018-02-15T12:01:15.219Z,1003.25
2018-02-15T12:02:15.232Z,1003.26
2018-02-15T12:03:15.242Z,1003.16
2018-02-15T12:04:15.259Z,1003.21
2018-02-15T12:05:15.276Z,1003.19